Time;durP1;ratioP1;P1;durP2;ratioP2;P2;SDS_P1;SDS_P2;PMS_P1;PMS_P2;Temp;Humidity;BMP_temperature;BMP_pressure;BME280_temperature;BME280_humidity;BME280_pressure;Samples;Min_cycle;Max_cycle;Signal;HPM_P1;HPM_P2
2021/11/25 02:47:39;;;;;;;;;;;;;;;;;;5598902;22;19947;-95
2021/11/25 03:31:34;;;;;;;;;;;;;;;;;;5075248;23;19933;-96
2021/11/25 04:10:14;;;;;;;;;;;;;;;;;;5683980;22;19913;-96
2021/11/25 04:25:53;;;;;;;;;;;;;;;;;;5897539;23;19924;-96
2021/11/25 04:28:27;;;;;;;;;;;;;;;;;;5058578;28;19955;-96
2021/11/25 04:36:14;;;;;;;;;;;;;;;;;;5997153;22;19920;-96
2021/11/25 04:38:41;;;;;;;;;;;;;;;;;;5073766;28;19925;-96
2021/11/25 04:41:07;;;;;;;;;;;;;;;;;;5073004;28;19943;-96
2021/11/25 07:33:02;;;;;;;104.93;32.03;;;;;;;;;;5073987;23;20514;-95
2021/11/25 07:48:51;;;;;;;99.70;30.53;;;;;;;;;;5819662;22;20467;-96
2021/11/25 08:05:03;;;;;;;124.07;45.00;;;;;;;;;;5254112;22;20517;-96
2021/11/25 08:13:14;;;;;;;129.10;43.80;;;;;;;;;;5438366;22;20487;-96
2021/11/25 08:15:40;;;;;;;112.80;40.17;;;;;;;;;;5040607;28;20454;-95
2021/11/25 08:18:07;;;;;;;116.27;37.10;;;;;;;;;;5451630;22;20591;-95
2021/11/25 08:31:10;;;;;;;98.50;29.40;;;;;;;;;;5106335;22;20495;-95
2021/11/25 08:36:21;;;;;;;96.97;28.07;;;;;;;;;;5098333;23;20505;-95
2021/11/25 08:51:51;;;;;;;83.90;20.40;;;;;;;;;;5333059;22;20497;-94
2021/11/25 09:03:06;;;;;;;86.00;20.80;;;;;;;;;;5301719;23;20480;-94
2021/11/25 09:16:17;;;;;;;85.60;22.03;;;;;;;;;;5063781;28;20476;-95
2021/11/25 09:43:46;;;;;;;80.47;18.50;;;;;;;;;;5071512;28;20444;-94
2021/11/25 09:46:14;;;;;;;78.13;18.17;;;;;;;;;;5069426;28;20423;-94
2021/11/25 09:51:40;;;;;;;78.00;19.10;;;;;;;;;;5066455;28;20445;-96
2021/11/25 09:57:05;;;;;;;76.20;18.13;;;;;;;;;;5211610;22;20468;-96
2021/11/25 09:59:37;;;;;;;79.90;18.60;;;;;;;;;;5075258;22;20556;-96
2021/11/25 10:02:06;;;;;;;78.27;17.37;;;;;;;;;;5066868;28;20461;-96
2021/11/25 10:04:34;;;;;;;81.53;18.50;;;;;;;;;;5143421;22;21757;-96
2021/11/25 10:10:13;;;;;;;75.00;16.87;;;;;;;;;;5068046;28;20425;-96
2021/11/25 10:12:42;;;;;;;77.67;16.80;;;;;;;;;;5063746;28;20465;-95
2021/11/25 10:15:29;;;;;;;77.73;17.43;;;;;;;;;;5064266;28;20438;-95
2021/11/25 10:17:58;;;;;;;77.87;17.60;;;;;;;;;;5130218;22;20559;-95
2021/11/25 10:20:31;;;;;;;77.13;17.33;;;;;;;;;;5198919;22;20492;-96
2021/11/25 10:23:25;;;;;;;77.10;18.00;;;;;;;;;;5072088;28;20468;-96
2021/11/25 10:25:57;;;;;;;76.77;17.17;;;;;;;;;;5068786;28;20516;-96
2021/11/25 10:31:31;;;;;;;77.17;17.43;;;;;;;;;;5040892;28;20529;-94
2021/11/25 10:37:18;;;;;;;77.87;17.87;;;;;;;;;;5078180;22;20487;-96
2021/11/25 10:40:09;;;;;;;73.40;15.70;;;;;;;;;;5063825;28;20453;-94
2021/11/25 10:42:40;;;;;;;76.97;17.33;;;;;;;;;;5071774;28;20428;-94
2021/11/25 10:45:11;;;;;;;75.43;17.33;;;;;;;;;;5126215;22;20484;-96
2021/11/25 10:47:38;;;;;;;76.13;16.90;;;;;;;;;;5070786;28;20448;-94
2021/11/25 10:50:11;;;;;;;76.20;16.97;;;;;;;;;;5075540;28;20459;-96
2021/11/25 10:52:43;;;;;;;75.00;17.10;;;;;;;;;;5109783;22;20493;-96
2021/11/25 10:55:23;;;;;;;75.00;16.10;;;;;;;;;;5045097;28;20435;-96
2021/11/25 10:58:06;;;;;;;75.50;16.93;;;;;;;;;;5063538;28;20463;-95
2021/11/25 11:00:43;;;;;;;74.47;15.67;;;;;;;;;;5057351;28;20438;-95
2021/11/25 11:03:12;;;;;;;74.63;16.20;;;;;;;;;;5066233;28;20425;-95
2021/11/25 11:06:17;;;;;;;74.63;16.30;;;;;;;;;;5300188;22;20476;-96
2021/11/25 11:12:20;;;;;;;74.90;15.80;;;;;;;;;;5120015;27;20529;-96
2021/11/25 11:18:42;;;;;;;75.93;16.20;;;;;;;;;;5114820;28;20441;-96
2021/11/25 11:21:00;;;;;;;73.30;16.10;;;;;;;;;;5124334;28;20474;-96
2021/11/25 11:23:34;;;;;;;75.17;16.50;;;;;;;;;;5144353;22;20483;-94
2021/11/25 11:26:05;;;;;;;74.77;16.20;;;;;;;;;;5119078;28;20444;-95
2021/11/25 11:28:35;;;;;;;73.47;15.33;;;;;;;;;;5114400;28;20471;-95
2021/11/25 11:31:05;;;;;;;73.80;15.90;;;;;;;;;;5116235;28;20455;-93
2021/11/25 11:33:31;;;;;;;73.97;16.70;;;;;;;;;;5111282;28;20450;-93
2021/11/25 11:35:59;;;;;;;75.30;16.47;;;;;;;;;;5109317;28;20469;-96
2021/11/25 11:38:27;;;;;;;75.27;16.77;;;;;;;;;;5110455;28;20944;-94
2021/11/25 11:40:58;;;;;;;74.67;16.40;;;;;;;;;;5111804;28;20455;-96
2021/11/25 11:43:29;;;;;;;75.17;16.33;;;;;;;;;;5111089;28;20435;-95
2021/11/25 11:46:04;;;;;;;74.27;16.90;;;;;;;;;;5112379;28;20415;-95
2021/11/25 11:53:57;;;;;;;74.67;16.60;;;;;;;;;;5180829;22;20480;-96
2021/11/25 11:56:45;;;;;;;74.60;17.17;;;;;;;;;;5140689;28;20446;-96
2021/11/25 11:59:12;;;;;;;73.80;15.93;;;;;;;;;;5147971;28;20434;-95
2021/11/25 12:02:00;;;;;;;75.27;16.10;;;;;;;;;;5144650;28;20501;-96
2021/11/25 12:04:55;;;;;;;73.83;16.00;;;;;;;;;;5149456;28;20421;-96
2021/11/25 12:07:33;;;;;;;76.83;16.53;;;;;;;;;;5144406;28;20469;-95
2021/11/25 12:10:05;;;;;;;75.03;16.93;;;;;;;;;;5144439;28;20488;-95
2021/11/25 12:12:33;;;;;;;73.40;16.50;;;;;;;;;;5141029;28;20445;-95
2021/11/25 12:15:04;;;;;;;74.87;15.93;;;;;;;;;;5143312;28;20456;-96
2021/11/25 12:17:36;;;;;;;74.40;16.00;;;;;;;;;;5143173;28;20478;-95
2021/11/25 12:20:23;;;;;;;72.27;15.47;;;;;;;;;;5142369;28;20449;-96
2021/11/25 12:22:52;;;;;;;73.47;15.60;;;;;;;;;;5129788;28;20460;-94
2021/11/25 12:25:45;;;;;;;73.70;16.67;;;;;;;;;;5131402;28;20446;-95
2021/11/25 12:28:22;;;;;;;72.20;15.70;;;;;;;;;;5126780;28;20443;-94
2021/11/25 12:31:06;;;;;;;75.47;16.23;;;;;;;;;;5127343;28;20481;-93
2021/11/25 12:34:06;;;;;;;73.70;16.00;;;;;;;;;;5129782;28;20479;-96
2021/11/25 12:36:52;;;;;;;73.67;15.90;;;;;;;;;;5128621;28;20963;-95
2021/11/25 12:42:32;;;;;;;76.80;15.53;;;;;;;;;;5133243;28;20441;-96
2021/11/25 12:47:48;;;;;;;73.53;15.53;;;;;;;;;;5134883;28;20448;-96
2021/11/25 12:50:36;;;;;;;74.27;15.80;;;;;;;;;;5132871;28;20495;-96
2021/11/25 12:53:15;;;;;;;74.60;15.67;;;;;;;;;;5233031;22;20468;31
2021/11/25 12:55:44;;;;;;;75.70;15.93;;;;;;;;;;5060310;28;20522;-95
2021/11/25 12:58:23;;;;;;;74.27;14.93;;;;;;;;;;5063418;28;20488;-96
2021/11/25 13:00:58;;;;;;;75.17;15.93;;;;;;;;;;5120031;22;20512;-96
2021/11/25 13:03:24;;;;;;;74.37;15.50;;;;;;;;;;5121125;28;20439;-96
2021/11/25 13:05:56;;;;;;;76.63;15.70;;;;;;;;;;5116386;28;20546;-96
2021/11/25 13:08:30;;;;;;;74.40;15.93;;;;;;;;;;5129735;28;20453;-96
2021/11/25 13:11:31;;;;;;;75.03;16.40;;;;;;;;;;5125165;27;20468;-96
2021/11/25 13:14:18;;;;;;;74.20;15.40;;;;;;;;;;5124116;27;20450;-96
2021/11/25 13:17:01;;;;;;;76.13;15.57;;;;;;;;;;5193032;22;20499;-96
2021/11/25 13:25:30;;;;;;;73.07;15.40;;;;;;;;;;5126889;22;20463;-96
2021/11/25 13:28:03;;;;;;;75.37;15.90;;;;;;;;;;5092815;28;20420;-96
2021/11/25 13:36:54;;;;;;;72.20;15.43;;;;;;;;;;5102392;28;20510;-96
2021/11/25 13:39:27;;;;;;;74.87;16.50;;;;;;;;;;5095604;28;20450;-94
2021/11/25 13:44:41;;;;;;;76.07;17.00;;;;;;;;;;5235411;22;20461;-96
2021/11/25 13:47:11;;;;;;;74.10;17.00;;;;;;;;;;5136118;27;20447;-95
2021/11/25 13:49:52;;;;;;;73.90;16.30;;;;;;;;;;5147480;27;20450;-96
2021/11/25 13:52:29;;;;;;;73.87;15.53;;;;;;;;;;5142071;27;20488;-96
2021/11/25 13:55:22;;;;;;;72.40;15.83;;;;;;;;;;5359366;22;20496;-94
2021/11/25 13:57:50;;;;;;;73.73;16.30;;;;;;;;;;5134131;28;20455;-96
2021/11/25 14:02:55;;;;;;;73.97;15.80;;;;;;;;;;5190981;22;20492;-96
2021/11/25 14:10:37;;;;;;;73.97;16.17;;;;;;;;;;5128982;22;20497;-93
2021/11/25 14:19:19;;;;;;;75.50;16.30;;;;;;;;;;5192936;22;20488;-96
2021/11/25 14:21:47;;;;;;;74.97;16.60;;;;;;;;;;5081232;28;20416;-95
2021/11/25 14:33:18;;;;;;;79.40;16.97;;;;;;;;;;5173099;22;20480;-96
2021/11/25 14:38:55;;;;;;;75.37;16.97;;;;;;;;;;5352355;22;20477;-94
2021/11/25 14:41:29;;;;;;;80.77;16.57;;;;;;;;;;5103029;22;20500;-95
2021/11/25 14:47:36;;;;;;;77.90;17.40;;;;;;;;;;5090380;28;20431;-96
2021/11/25 14:53:15;;;;;;;81.20;18.03;;;;;;;;;;5171333;22;20530;-96
2021/11/25 14:55:55;;;;;;;71.37;15.27;;;;;;;;;;5178642;22;20560;-96
2021/11/25 15:01:10;;;;;;;75.67;16.90;;;;;;;;;;5097711;28;20441;-96
2021/11/25 15:03:38;;;;;;;74.20;16.33;;;;;;;;;;5081272;28;20426;-96
2021/11/25 15:09:41;;;;;;;77.17;16.90;;;;;;;;;;4770210;26;20477;-95
2021/11/25 15:12:11;;;;;;;76.43;17.90;;;;;;;;;;5096131;28;20481;-96
2021/11/25 15:14:43;;;;;;;75.50;16.73;;;;;;;;;;5098635;28;20477;-96
2021/11/25 15:17:17;;;;;;;78.60;18.17;;;;;;;;;;5100949;28;20465;-96
2021/11/25 15:19:49;;;;;;;74.50;15.70;;;;;;;;;;5216689;22;20507;-96
2021/11/25 15:25:01;;;;;;;79.83;17.40;;;;;;;;;;5123737;22;20488;-96
2021/11/25 15:27:41;;;;;;;77.93;17.17;;;;;;;;;;5082953;28;20413;-96
2021/11/25 15:41:17;;;;;;;73.43;16.23;;;;;;;;;;5100697;28;20472;-96
2021/11/25 15:57:47;;;;;;;75.17;17.83;;;;;;;;;;5083011;28;20461;-96
2021/11/25 16:00:14;;;;;;;75.17;16.63;;;;;;;;;;5071824;28;20461;-96
2021/11/25 16:10:55;;;;;;;73.07;15.40;;;;;;;;;;5180205;22;20499;-96
2021/11/25 16:16:14;;;;;;;73.50;15.87;;;;;;;;;;5099509;22;20489;-96
2021/11/25 16:21:15;;;;;;;76.10;15.30;;;;;;;;;;5521316;22;20466;-96
2021/11/25 16:23:49;;;;;;;75.53;16.57;;;;;;;;;;5197463;22;20525;-96
2021/11/25 16:34:43;;;;;;;72.30;15.80;;;;;;;;;;5208101;22;20486;-96
2021/11/25 16:37:10;;;;;;;73.17;15.33;;;;;;;;;;5061652;28;20527;-96
2021/11/25 16:39:40;;;;;;;73.17;15.73;;;;;;;;;;5053544;28;20458;-96
2021/11/25 16:42:07;;;;;;;75.97;16.70;;;;;;;;;;5056142;28;20451;-94
2021/11/25 16:44:38;;;;;;;74.43;16.10;;;;;;;;;;5056780;28;20510;-95
2021/11/25 16:56:08;;;;;;;76.80;16.13;;;;;;;;;;5432732;22;20502;-95
2021/11/25 16:58:36;;;;;;;77.50;17.30;;;;;;;;;;5091487;28;20484;-95
2021/11/25 17:03:45;;;;;;;79.30;17.10;;;;;;;;;;5741436;22;20488;-96
2021/11/25 17:06:15;;;;;;;80.37;17.60;;;;;;;;;;5086386;28;20451;-96
2021/11/25 17:08:53;;;;;;;79.03;18.83;;;;;;;;;;5088534;28;20435;-96
2021/11/25 17:11:21;;;;;;;80.23;18.30;;;;;;;;;;5080125;28;20503;-96
2021/11/25 17:16:32;;;;;;;85.90;21.10;;;;;;;;;;5091036;28;20444;-96
2021/11/25 17:25:25;;;;;;;86.20;21.37;;;;;;;;;;5088104;28;20477;-96
2021/11/25 17:28:33;;;;;;;82.90;20.70;;;;;;;;;;5184707;22;20472;-96
2021/11/25 17:31:09;;;;;;;85.83;20.97;;;;;;;;;;5096580;28;20421;-96
2021/11/25 17:33:36;;;;;;;87.67;20.27;;;;;;;;;;5087410;28;20448;-96
2021/11/25 17:38:50;;;;;;;88.47;22.90;;;;;;;;;;5619623;22;20492;-96
2021/11/25 17:41:18;;;;;;;87.53;23.70;;;;;;;;;;5050926;28;20439;-96
2021/11/25 17:43:47;;;;;;;83.33;21.50;;;;;;;;;;5040867;28;20439;-96
2021/11/25 17:46:14;;;;;;;84.20;21.60;;;;;;;;;;5042822;28;20448;-95
2021/11/25 17:48:41;;;;;;;83.07;20.60;;;;;;;;;;5036790;28;20448;-96
2021/11/25 17:51:10;;;;;;;80.87;19.93;;;;;;;;;;5029875;28;20439;-96
2021/11/25 17:53:36;;;;;;;88.13;20.47;;;;;;;;;;5032051;28;20473;-96
2021/11/25 17:56:05;;;;;;;87.20;22.20;;;;;;;;;;5037852;28;20462;-96
2021/11/25 18:11:57;;;;;;;76.70;17.03;;;;;;;;;;5065626;28;20544;-96
2021/11/25 18:17:00;;;;;;;83.90;20.07;;;;;;;;;;5594166;22;20507;-96
2021/11/25 18:22:14;;;;;;;79.90;20.23;;;;;;;;;;5592755;22;20484;-96
2021/11/25 18:39:44;;;;;;;83.37;20.13;;;;;;;;;;5568929;22;20485;-96
2021/11/25 18:44:47;;;;;;;83.37;21.00;;;;;;;;;;5356491;22;20523;-95
2021/11/25 18:47:17;;;;;;;81.27;19.07;;;;;;;;;;5079203;28;20426;-96
2021/11/25 18:49:46;;;;;;;76.30;16.30;;;;;;;;;;5074098;28;20450;-94
2021/11/25 18:54:55;;;;;;;78.57;17.90;;;;;;;;;;5173349;22;20496;-96
2021/11/25 19:14:37;;;;;;;89.10;23.73;;;;;;;;;;5045892;28;20446;-96
2021/11/25 19:25:26;;;;;;;79.03;17.93;;;;;;;;;;5070927;28;20467;-95
2021/11/25 19:27:55;;;;;;;78.57;17.27;;;;;;;;;;5068927;28;20449;-95
2021/11/25 19:30:23;;;;;;;77.80;17.43;;;;;;;;;;5065452;28;20507;-93
2021/11/25 19:32:52;;;;;;;75.77;17.10;;;;;;;;;;5066274;28;21034;-94
2021/11/25 19:35:19;;;;;;;76.87;17.17;;;;;;;;;;5066099;28;20512;-96
2021/11/25 19:37:46;;;;;;;73.20;16.17;;;;;;;;;;5067897;28;20447;-95
2021/11/25 19:40:15;;;;;;;75.83;16.43;;;;;;;;;;5067972;28;20465;-94
2021/11/25 19:42:46;;;;;;;77.57;17.27;;;;;;;;;;5068952;28;20450;-96
2021/11/25 19:45:13;;;;;;;75.77;17.00;;;;;;;;;;5073336;28;20454;-94
2021/11/25 19:47:40;;;;;;;79.30;17.50;;;;;;;;;;5067769;28;21004;-94
2021/11/25 19:50:09;;;;;;;75.67;17.20;;;;;;;;;;5069616;28;20452;-94
2021/11/25 19:52:36;;;;;;;76.70;17.40;;;;;;;;;;5068848;28;20493;-96
2021/11/25 19:55:03;;;;;;;77.20;16.70;;;;;;;;;;5075495;28;20436;-96
2021/11/25 19:57:30;;;;;;;74.90;17.13;;;;;;;;;;5070717;28;20441;-96
2021/11/25 19:59:59;;;;;;;77.67;16.70;;;;;;;;;;5080027;28;20461;-96
2021/11/25 20:02:26;;;;;;;80.27;17.83;;;;;;;;;;5083539;28;20464;-96
2021/11/25 20:04:55;;;;;;;79.97;18.10;;;;;;;;;;5076792;28;20461;-95
2021/11/25 20:07:21;;;;;;;74.87;17.23;;;;;;;;;;5069284;28;21028;-96
2021/11/25 20:09:48;;;;;;;75.17;17.20;;;;;;;;;;5067128;28;20541;-95
2021/11/25 20:12:15;;;;;;;77.17;17.87;;;;;;;;;;5070458;28;20907;-96
2021/11/25 20:14:42;;;;;;;81.60;18.60;;;;;;;;;;5072118;28;20541;-94
2021/11/25 20:17:12;;;;;;;78.33;17.53;;;;;;;;;;5072045;28;20914;-96
2021/11/25 20:19:39;;;;;;;75.70;16.40;;;;;;;;;;5075233;28;20459;-96
2021/11/25 20:22:06;;;;;;;76.27;16.60;;;;;;;;;;5069959;28;20501;-94
2021/11/25 20:24:33;;;;;;;75.97;17.83;;;;;;;;;;5070616;28;20964;-95
2021/11/25 20:26:59;;;;;;;74.53;16.13;;;;;;;;;;5075674;28;20446;-96
2021/11/25 20:29:26;;;;;;;75.67;16.97;;;;;;;;;;5074580;28;20441;-96
2021/11/25 20:31:53;;;;;;;76.30;17.00;;;;;;;;;;5076690;28;20473;-96
2021/11/25 20:34:21;;;;;;;74.73;16.00;;;;;;;;;;5073581;28;20883;-96
2021/11/25 20:36:50;;;;;;;76.87;17.43;;;;;;;;;;5072293;28;20433;-95
2021/11/25 20:39:17;;;;;;;75.63;16.57;;;;;;;;;;5071626;28;20454;-96
2021/11/25 20:41:49;;;;;;;77.50;17.10;;;;;;;;;;5079865;28;20469;-96
2021/11/25 20:44:20;;;;;;;84.00;17.73;;;;;;;;;;5072669;28;20437;-96
2021/11/25 20:47:02;;;;;;;75.90;18.30;;;;;;;;;;5073124;28;20454;-96
2021/11/25 20:49:32;;;;;;;78.80;17.43;;;;;;;;;;5078399;28;20545;-96
2021/11/25 20:52:02;;;;;;;79.97;17.50;;;;;;;;;;5080848;28;20476;-95
2021/11/25 20:54:34;;;;;;;75.47;16.67;;;;;;;;;;5070932;28;20445;-96
2021/11/25 20:57:02;;;;;;;78.13;17.87;;;;;;;;;;5067992;28;20513;-93
2021/11/25 20:59:28;;;;;;;79.17;17.17;;;;;;;;;;5066669;28;20434;-93
2021/11/25 21:01:55;;;;;;;74.23;16.53;;;;;;;;;;5069895;28;20458;-95
2021/11/25 21:04:22;;;;;;;76.73;17.43;;;;;;;;;;5069190;28;20438;-95
2021/11/25 21:06:50;;;;;;;77.80;17.20;;;;;;;;;;5075891;28;20442;-94
2021/11/25 21:09:19;;;;;;;76.30;17.00;;;;;;;;;;5070446;28;20455;-96
2021/11/25 21:11:46;;;;;;;77.03;17.00;;;;;;;;;;5049923;28;20457;-95
2021/11/25 21:14:15;;;;;;;81.97;17.10;;;;;;;;;;5072379;28;20469;-96
2021/11/25 21:16:42;;;;;;;76.07;16.70;;;;;;;;;;5068236;28;20458;-94
2021/11/25 21:19:10;;;;;;;75.67;16.47;;;;;;;;;;5074239;28;20453;-96
2021/11/25 21:21:39;;;;;;;77.37;16.67;;;;;;;;;;5069585;28;20446;-96
2021/11/25 21:24:08;;;;;;;79.60;18.00;;;;;;;;;;5072579;28;20437;-96
2021/11/25 21:26:34;;;;;;;75.00;17.40;;;;;;;;;;5067684;28;20466;-94
2021/11/25 21:29:05;;;;;;;79.10;17.77;;;;;;;;;;5070216;28;20445;-96
2021/11/25 21:31:46;;;;;;;78.67;16.73;;;;;;;;;;5073551;28;20442;-96
2021/11/25 21:34:12;;;;;;;75.37;17.30;;;;;;;;;;5067618;28;20490;-94
2021/11/25 21:36:40;;;;;;;77.07;16.20;;;;;;;;;;5066187;28;20452;-95
2021/11/25 21:39:08;;;;;;;75.80;16.83;;;;;;;;;;5067161;28;20440;-95
2021/11/25 21:41:35;;;;;;;77.17;16.40;;;;;;;;;;5065113;28;20984;-94
2021/11/25 21:44:07;;;;;;;75.67;17.00;;;;;;;;;;5066314;28;20426;-96
2021/11/25 21:46:35;;;;;;;75.63;16.10;;;;;;;;;;5051746;28;20441;-96
2021/11/25 21:49:28;;;;;;;77.20;16.93;;;;;;;;;;5077543;28;20870;-96
2021/11/25 21:52:05;;;;;;;73.93;15.20;;;;;;;;;;5071025;28;20497;-95
2021/11/25 21:54:33;;;;;;;73.80;15.70;;;;;;;;;;5052561;28;20449;-96
2021/11/25 21:57:02;;;;;;;75.20;16.60;;;;;;;;;;5069016;28;20472;-95
2021/11/25 21:59:28;;;;;;;74.07;15.60;;;;;;;;;;5065603;28;20509;-95
2021/11/25 22:01:55;;;;;;;76.30;15.60;;;;;;;;;;5063194;28;20452;-94
2021/11/25 22:04:22;;;;;;;73.03;16.17;;;;;;;;;;5068701;28;20434;-95
2021/11/25 22:06:48;;;;;;;73.30;16.07;;;;;;;;;;5069804;28;20461;-96
2021/11/25 22:09:15;;;;;;;77.57;16.43;;;;;;;;;;5068071;28;20441;-94
2021/11/25 22:11:43;;;;;;;73.10;15.40;;;;;;;;;;5067341;28;20544;-96
2021/11/25 22:16:52;;;;;;;75.40;15.93;;;;;;;;;;5071266;28;20434;-95
2021/11/25 22:19:26;;;;;;;75.43;16.53;;;;;;;;;;5073097;28;20423;-96
2021/11/25 22:27:22;;;;;;;73.43;15.40;;;;;;;;;;5064342;28;20456;-95
2021/11/25 22:29:53;;;;;;;73.83;16.03;;;;;;;;;;5063962;28;20623;-96
2021/11/25 22:32:23;;;;;;;75.53;16.10;;;;;;;;;;5067894;28;20450;-96
2021/11/25 22:34:54;;;;;;;74.37;15.17;;;;;;;;;;5066632;28;20510;-96
2021/11/25 22:37:20;;;;;;;74.33;15.53;;;;;;;;;;5067829;28;20481;-95
2021/11/25 22:39:47;;;;;;;77.40;16.77;;;;;;;;;;5064714;28;21015;-96
2021/11/25 22:42:26;;;;;;;73.07;15.63;;;;;;;;;;5064848;28;20525;-96
2021/11/25 22:44:53;;;;;;;72.87;15.57;;;;;;;;;;5070811;28;20492;-96
2021/11/25 22:47:19;;;;;;;73.90;16.20;;;;;;;;;;5070065;28;20451;-96
2021/11/25 22:49:46;;;;;;;74.70;15.57;;;;;;;;;;5072168;28;20520;-94
2021/11/25 22:52:17;;;;;;;75.90;15.87;;;;;;;;;;5068856;28;20425;-94
2021/11/25 22:54:48;;;;;;;73.83;15.77;;;;;;;;;;5076913;28;20456;-93
2021/11/25 22:57:15;;;;;;;74.37;15.30;;;;;;;;;;5069761;28;20502;-96
2021/11/25 22:59:52;;;;;;;72.57;15.30;;;;;;;;;;5073277;28;20869;-96
2021/11/25 23:02:19;;;;;;;75.47;15.67;;;;;;;;;;5071299;28;21033;-96
2021/11/25 23:04:46;;;;;;;75.50;15.20;;;;;;;;;;5071644;28;20494;-96
2021/11/25 23:07:13;;;;;;;73.77;15.03;;;;;;;;;;5074557;28;20506;-96
2021/11/25 23:09:43;;;;;;;74.03;15.10;;;;;;;;;;5057181;28;20446;-96
2021/11/25 23:12:12;;;;;;;74.07;14.83;;;;;;;;;;5074378;28;20485;-96
2021/11/25 23:14:41;;;;;;;78.07;16.33;;;;;;;;;;5069479;28;20520;-96
2021/11/25 23:17:09;;;;;;;78.47;15.47;;;;;;;;;;5080055;22;20434;-95
2021/11/25 23:19:37;;;;;;;76.37;16.10;;;;;;;;;;5063106;28;20478;-95
2021/11/25 23:22:04;;;;;;;73.57;15.00;;;;;;;;;;5072703;22;20438;-95
2021/11/25 23:24:31;;;;;;;75.17;15.83;;;;;;;;;;5030209;28;20498;-94
2021/11/25 23:26:57;;;;;;;74.90;15.20;;;;;;;;;;5033368;28;21175;-95
2021/11/25 23:29:24;;;;;;;73.93;16.27;;;;;;;;;;5031378;28;20448;-95
2021/11/25 23:31:51;;;;;;;72.60;15.10;;;;;;;;;;5032869;28;20452;-96
2021/11/25 23:34:19;;;;;;;72.27;15.43;;;;;;;;;;5031558;28;20488;-96
2021/11/25 23:36:46;;;;;;;74.37;15.43;;;;;;;;;;5030181;28;20950;-96
2021/11/25 23:39:19;;;;;;;73.93;16.40;;;;;;;;;;5027657;28;20446;-96
2021/11/25 23:41:45;;;;;;;74.83;14.80;;;;;;;;;;5032912;28;20448;-94
2021/11/25 23:44:21;;;;;;;73.60;15.37;;;;;;;;;;5034146;28;20462;-96
2021/11/25 23:46:48;;;;;;;74.37;16.10;;;;;;;;;;5031323;28;20443;-96
2021/11/25 23:49:17;;;;;;;72.03;15.20;;;;;;;;;;5037713;28;20436;-96
2021/11/25 23:51:57;;;;;;;74.00;16.20;;;;;;;;;;5030520;28;20455;-96
2021/11/25 23:54:23;;;;;;;73.17;15.73;;;;;;;;;;5027824;28;20479;-94
2021/11/25 23:56:50;;;;;;;73.10;15.33;;;;;;;;;;5028092;28;20455;-96
2021/11/25 23:59:17;;;;;;;73.80;16.13;;;;;;;;;;5031009;28;20463;-96
